White Pine, Colorado
Current Conditions -  °F | °C
As of 3:51 PM on Thursday 27 Nov 2014 (Local Time) from KMYP Reporting Station
Clear Clear  
Wind Chill: 14°   Ceiling: Unl
Heat Index: 30°   Visibility: 10mi
Dew Point: 18°   Wind: 35mph
Humidity: 60%   Direction: 270°W
Pressure: 30.58"   Gusts: 39mph
Location:  38.4045°N, 106.414°W
Report Text: KMYP 272251Z AUTO 27030G34KT 10SM CLR M01/M08 A3058 RMK AO2
Loading
Personal Weather Stations






























Interactive Weather Map New forecast layout! Learn more

10-Day Weather Forecast

Advertisements
Track Severe Weather on mobile